createdAt,value
2018-04-16T00:00:14.523Z,13.60
2018-04-16T00:01:17.887Z,13.60
2018-04-16T00:02:21.222Z,13.70
2018-04-16T00:03:24.568Z,13.70
2018-04-16T00:04:27.869Z,13.70
2018-04-16T00:05:31.244Z,13.70
2018-04-16T00:06:34.650Z,13.70
2018-04-16T00:07:37.949Z,13.70
2018-04-16T00:08:41.713Z,13.70
2018-04-16T00:09:45.066Z,13.70
2018-04-16T00:10:48.471Z,13.70
2018-04-16T00:12:54.050Z,13.70
2018-04-16T00:13:57.354Z,13.70
2018-04-16T00:15:01.225Z,13.70
2018-04-16T00:16:04.738Z,13.80
2018-04-16T00:17:08.096Z,13.90
2018-04-16T00:18:11.447Z,13.90
2018-04-16T00:19:14.811Z,13.80
2018-04-16T00:20:18.177Z,13.80
2018-04-16T00:21:21.531Z,13.80
2018-04-16T00:22:24.879Z,13.70
2018-04-16T00:23:28.323Z,13.80
2018-04-16T00:24:31.621Z,13.70
2018-04-16T00:25:35.041Z,13.70
2018-04-16T00:26:38.420Z,13.70
2018-04-16T00:27:42.564Z,13.60
2018-04-16T00:28:45.954Z,13.60
2018-04-16T00:29:49.601Z,13.50
2018-04-16T00:30:53.769Z,13.50
2018-04-16T00:32:02.488Z,13.40
2018-04-16T00:33:11.174Z,13.40
2018-04-16T00:34:19.964Z,13.50
2018-04-16T00:35:28.925Z,13.50
2018-04-16T00:36:37.626Z,13.50
2018-04-16T00:37:46.492Z,13.50
2018-04-16T00:38:55.327Z,13.50
2018-04-16T00:40:04.257Z,13.50
2018-04-16T00:41:12.958Z,13.50
2018-04-16T00:42:21.678Z,13.50
2018-04-16T00:43:30.502Z,13.50
2018-04-16T00:44:39.386Z,13.60
2018-04-16T00:45:48.071Z,13.60
2018-04-16T00:46:56.815Z,13.50
2018-04-16T00:48:05.616Z,13.60
2018-04-16T00:49:14.455Z,13.50
2018-04-16T00:50:23.173Z,13.50
2018-04-16T00:53:14.024Z,13.50
2018-04-16T00:54:25.643Z,13.50
2018-04-16T00:55:34.446Z,13.50
2018-04-16T00:56:43.254Z,13.50
2018-04-16T00:57:52.105Z,13.50
2018-04-16T00:59:00.810Z,13.50
2018-04-16T01:00:09.502Z,13.50
2018-04-16T01:01:18.320Z,13.60
2018-04-16T01:02:27.151Z,13.60
2018-04-16T01:03:36.048Z,13.50
2018-04-16T01:04:44.777Z,13.50
2018-04-16T01:05:53.696Z,13.60
2018-04-16T01:07:02.558Z,13.60
2018-04-16T01:08:12.162Z,13.60
2018-04-16T01:09:20.863Z,13.60
2018-04-16T01:10:29.586Z,13.60
2018-04-16T01:11:38.441Z,13.50
2018-04-16T01:12:47.414Z,13.40
2018-04-16T01:13:57.040Z,13.40
2018-04-16T01:15:05.782Z,13.30
2018-04-16T01:16:15.538Z,13.30
2018-04-16T01:19:18.943Z,13.10
2018-04-16T01:20:27.802Z,13.10
2018-04-16T01:23:15.292Z,13.10
2018-04-16T01:24:24.146Z,13.10
2018-04-16T01:25:33.086Z,13.10
2018-04-16T01:26:41.937Z,13.00
2018-04-16T01:27:50.834Z,12.90
2018-04-16T01:29:00.283Z,12.80
2018-04-16T01:30:10.033Z,12.80
2018-04-16T01:31:18.692Z,12.90
2018-04-16T01:32:28.109Z,12.70
2018-04-16T01:33:37.771Z,12.80
2018-04-16T01:34:46.664Z,12.80
2018-04-16T01:35:55.416Z,12.80
2018-04-16T01:37:04.498Z,12.70
2018-04-16T01:38:14.177Z,12.70
2018-04-16T01:39:22.887Z,12.70
2018-04-16T01:40:31.662Z,12.70
2018-04-16T01:41:41.135Z,12.70
2018-04-16T01:42:50.034Z,12.70
2018-04-16T01:43:58.834Z,12.70
2018-04-16T01:45:07.777Z,12.70
2018-04-16T01:46:16.699Z,12.70
2018-04-16T01:47:25.697Z,12.60
2018-04-16T01:48:34.618Z,12.60
2018-04-16T01:49:43.393Z,12.60
2018-04-16T01:50:52.965Z,12.60
2018-04-16T01:52:01.900Z,12.60
2018-04-16T01:53:10.740Z,12.50
2018-04-16T01:54:20.468Z,12.40
2018-04-16T01:55:29.241Z,12.40
2018-04-16T01:56:38.246Z,12.40
2018-04-16T01:57:47.153Z,12.40
2018-04-16T01:58:56.046Z,12.40
2018-04-16T02:00:05.507Z,12.40
2018-04-16T02:01:14.237Z,12.30
2018-04-16T02:02:23.213Z,12.40
2018-04-16T02:03:32.163Z,12.40
2018-04-16T02:04:40.997Z,12.30
2018-04-16T02:05:49.859Z,12.30
2018-04-16T02:06:58.688Z,12.30
2018-04-16T02:08:07.523Z,12.30
2018-04-16T02:09:16.152Z,12.20
2018-04-16T02:10:24.865Z,12.20
2018-04-16T02:11:33.835Z,12.30
2018-04-16T02:12:42.738Z,12.30
2018-04-16T02:13:51.569Z,12.30
2018-04-16T02:15:00.316Z,12.30
2018-04-16T02:16:09.247Z,12.20
2018-04-16T02:17:18.019Z,12.20
2018-04-16T02:20:04.037Z,12.10
2018-04-16T02:21:13.111Z,12.10
2018-04-16T02:22:21.921Z,12.10
2018-04-16T02:23:30.736Z,12.10
2018-04-16T02:24:39.470Z,12.20
2018-04-16T02:25:48.368Z,12.10
2018-04-16T02:26:57.121Z,12.10
2018-04-16T02:28:06.292Z,12.10
2018-04-16T02:29:15.938Z,12.00
2018-04-16T02:30:24.855Z,12.00
2018-04-16T02:31:33.780Z,12.00
2018-04-16T02:32:43.162Z,12.00
2018-04-16T02:33:51.891Z,12.00
2018-04-16T02:35:01.313Z,12.00
2018-04-16T02:36:10.246Z,12.00
2018-04-16T02:37:18.865Z,12.00
2018-04-16T02:38:27.686Z,11.90
2018-04-16T02:39:36.449Z,12.00
2018-04-16T02:40:46.103Z,12.10
2018-04-16T02:41:54.983Z,12.10
2018-04-16T02:43:03.917Z,12.10
2018-04-16T02:44:13.029Z,12.00
2018-04-16T02:45:22.673Z,12.00
2018-04-16T02:46:32.594Z,12.00
2018-04-16T02:47:41.530Z,11.90
2018-04-16T02:48:51.018Z,12.10
2018-04-16T02:51:26.957Z,12.00
2018-04-16T02:52:35.918Z,12.00
2018-04-16T02:53:44.697Z,12.00
2018-04-16T02:54:53.523Z,11.90
2018-04-16T02:56:03.572Z,11.90
2018-04-16T02:57:13.238Z,11.90
2018-04-16T03:00:03.987Z,11.90
2018-04-16T03:01:12.617Z,11.90
2018-04-16T03:02:21.478Z,11.90
2018-04-16T03:03:30.289Z,11.90
2018-04-16T03:04:39.074Z,11.90
2018-04-16T03:05:47.953Z,11.80
2018-04-16T03:06:56.788Z,11.90
2018-04-16T03:08:05.705Z,11.90
2018-04-16T03:09:14.595Z,11.70
2018-04-16T03:10:23.814Z,11.80
2018-04-16T03:11:33.238Z,11.80
2018-04-16T03:12:43.048Z,11.80
2018-04-16T03:13:51.890Z,11.80
2018-04-16T03:15:01.640Z,11.90
2018-04-16T03:17:29.392Z,11.90
2018-04-16T03:19:51.362Z,12.10
2018-04-16T03:21:00.778Z,12.20
2018-04-16T03:22:09.635Z,12.20
2018-04-16T03:23:18.392Z,12.20
2018-04-16T03:24:27.242Z,12.20
2018-04-16T03:25:37.105Z,12.30
2018-04-16T03:26:45.904Z,12.30
2018-04-16T03:27:57.004Z,12.40
2018-04-16T03:29:05.914Z,12.40
2018-04-16T03:30:15.482Z,12.40
2018-04-16T03:31:24.061Z,12.40
2018-04-16T03:32:33.719Z,12.50
2018-04-16T03:33:43.409Z,12.50
2018-04-16T03:34:52.438Z,12.60
2018-04-16T03:36:01.356Z,12.60
2018-04-16T03:37:10.186Z,12.60
2018-04-16T03:38:18.914Z,12.60
2018-04-16T03:39:29.062Z,12.70
2018-04-16T03:42:16.635Z,12.80
2018-04-16T03:43:25.425Z,12.80
2018-04-16T03:44:35.011Z,13.00
2018-04-16T03:45:44.049Z,13.00
2018-04-16T03:46:52.793Z,13.00
2018-04-16T03:48:02.462Z,13.00
2018-04-16T03:50:16.813Z,13.00
2018-04-16T03:53:03.377Z,13.00
2018-04-16T03:54:07.538Z,12.90
2018-04-16T03:57:02.385Z,13.00
2018-04-16T03:58:06.499Z,13.10
2018-04-16T03:59:11.633Z,13.10
2018-04-16T04:00:14.952Z,13.10
2018-04-16T04:01:18.406Z,13.30
2018-04-16T04:02:23.219Z,13.30
2018-04-16T04:03:27.660Z,13.30
2018-04-16T04:04:31.191Z,13.40
2018-04-16T04:05:34.599Z,13.40
2018-04-16T04:06:38.749Z,13.40
2018-04-16T04:07:43.158Z,13.50
2018-04-16T04:08:46.478Z,13.50
2018-04-16T04:09:49.812Z,13.50
2018-04-16T04:10:53.174Z,13.40
2018-04-16T04:11:57.272Z,13.40
2018-04-16T04:13:01.367Z,13.40
2018-04-16T04:14:05.505Z,13.40
2018-04-16T04:15:08.871Z,13.30
2018-04-16T04:16:12.960Z,13.20
2018-04-16T04:17:17.083Z,13.10
2018-04-16T04:18:20.450Z,13.10
2018-04-16T04:19:24.538Z,13.00
2018-04-16T04:20:27.922Z,13.00
2018-04-16T04:21:31.228Z,12.90
2018-04-16T04:22:52.291Z,12.90
2018-04-16T04:24:13.092Z,12.90
2018-04-16T04:25:34.013Z,12.80
2018-04-16T04:26:55.002Z,12.90
2018-04-16T04:28:16.585Z,12.90
2018-04-16T04:29:37.542Z,12.90
2018-04-16T04:30:41.120Z,12.90
2018-04-16T04:31:45.232Z,12.90
2018-04-16T04:32:48.625Z,12.90
2018-04-16T04:33:52.009Z,13.00
2018-04-16T04:34:56.112Z,12.90
2018-04-16T04:35:59.443Z,12.90
2018-04-16T04:37:02.874Z,12.90
2018-04-16T04:38:06.973Z,12.90
2018-04-16T04:39:11.116Z,12.80
2018-04-16T04:40:14.474Z,12.90
2018-04-16T04:41:18.572Z,12.80
2018-04-16T04:42:21.900Z,12.80
2018-04-16T04:43:25.227Z,12.70
2018-04-16T04:44:28.622Z,12.70
2018-04-16T04:45:31.941Z,12.70
2018-04-16T04:46:35.323Z,12.70
2018-04-16T04:47:38.718Z,12.70
2018-04-16T04:48:42.050Z,12.70
2018-04-16T04:49:45.448Z,12.70
2018-04-16T04:50:49.562Z,12.80
2018-04-16T04:51:52.930Z,12.80
2018-04-16T04:54:12.356Z,12.80
2018-04-16T04:55:15.721Z,12.70
2018-04-16T04:56:19.165Z,12.70
2018-04-16T04:57:22.630Z,12.70
2018-04-16T04:58:26.089Z,12.60
2018-04-16T04:59:29.533Z,12.60
2018-04-16T05:00:32.867Z,12.70
2018-04-16T05:01:36.177Z,12.70
2018-04-16T05:02:39.557Z,12.70
2018-04-16T05:03:43.438Z,12.80
2018-04-16T05:04:46.732Z,12.80
2018-04-16T05:05:50.046Z,12.80
2018-04-16T05:06:54.123Z,12.80
2018-04-16T05:07:57.562Z,12.80
2018-04-16T05:09:00.952Z,12.90
2018-04-16T05:10:04.284Z,13.00
2018-04-16T05:11:07.585Z,13.10
2018-04-16T05:12:10.937Z,13.10
2018-04-16T05:13:14.390Z,13.10
2018-04-16T05:14:17.707Z,13.10
2018-04-16T05:15:21.079Z,13.10
2018-04-16T05:16:24.427Z,13.10
2018-04-16T05:17:27.756Z,13.10
2018-04-16T05:18:31.085Z,13.10
2018-04-16T05:19:35.212Z,13.20
2018-04-16T05:20:38.580Z,13.20
2018-04-16T05:21:42.728Z,13.20
2018-04-16T05:22:46.077Z,13.20
2018-04-16T05:23:50.181Z,13.30
2018-04-16T05:24:53.514Z,13.20
2018-04-16T05:25:56.883Z,13.30
2018-04-16T05:27:00.211Z,13.40
2018-04-16T05:28:03.666Z,13.40
2018-04-16T05:29:07.060Z,13.40
2018-04-16T05:30:10.745Z,13.40
2018-04-16T05:31:14.069Z,13.40
2018-04-16T05:32:17.702Z,13.40
2018-04-16T05:33:21.043Z,13.40
2018-04-16T05:34:24.436Z,13.40
2018-04-16T05:35:27.767Z,13.40
2018-04-16T05:36:31.633Z,13.40
2018-04-16T05:37:34.949Z,13.50
2018-04-16T05:38:38.310Z,13.50
2018-04-16T05:39:41.752Z,13.50
2018-04-16T05:40:45.187Z,13.50
2018-04-16T05:41:48.502Z,13.50
2018-04-16T05:42:51.926Z,13.50
2018-04-16T05:43:55.247Z,13.50
2018-04-16T05:44:58.602Z,13.40
2018-04-16T05:46:01.919Z,13.40
2018-04-16T05:47:05.388Z,13.40
2018-04-16T05:48:09.481Z,13.50
2018-04-16T05:49:14.271Z,13.50
2018-04-16T05:50:17.714Z,13.50
2018-04-16T05:51:21.065Z,13.50
2018-04-16T05:52:25.597Z,13.50
2018-04-16T05:53:29.018Z,13.50
2018-04-16T05:54:32.430Z,13.50
2018-04-16T05:55:35.794Z,13.50
2018-04-16T05:56:39.123Z,13.50
2018-04-16T05:57:42.421Z,13.60
2018-04-16T05:58:46.508Z,13.70
2018-04-16T05:59:49.838Z,13.70
2018-04-16T06:00:53.211Z,13.70
2018-04-16T06:01:57.256Z,13.80
2018-04-16T06:03:00.674Z,13.80
2018-04-16T06:04:04.221Z,13.80
2018-04-16T06:05:07.540Z,13.80
2018-04-16T06:06:10.900Z,13.80
2018-04-16T06:07:14.198Z,13.80
2018-04-16T06:08:17.489Z,13.80
2018-04-16T06:09:20.808Z,13.80
2018-04-16T06:10:24.207Z,13.80
2018-04-16T06:11:28.182Z,13.80
2018-04-16T06:12:32.306Z,13.90
2018-04-16T06:13:35.709Z,13.90
2018-04-16T06:14:38.987Z,14.00
2018-04-16T06:15:42.291Z,14.00
2018-04-16T06:16:45.642Z,14.10
2018-04-16T06:17:48.987Z,14.20
2018-04-16T06:18:52.348Z,14.20
2018-04-16T06:19:55.692Z,14.30
2018-04-16T06:20:59.004Z,14.30
2018-04-16T06:22:02.521Z,14.40
2018-04-16T06:23:06.057Z,14.40
2018-04-16T06:24:10.136Z,14.60
2018-04-16T06:25:13.478Z,14.60
2018-04-16T06:26:16.841Z,14.70
2018-04-16T06:27:20.287Z,14.70
2018-04-16T06:28:23.591Z,14.80
2018-04-16T06:29:27.653Z,14.90
2018-04-16T06:30:30.995Z,14.90
2018-04-16T06:31:34.310Z,15.00
2018-04-16T06:32:37.673Z,15.00
2018-04-16T06:33:40.985Z,15.00
2018-04-16T06:34:44.344Z,15.00
2018-04-16T06:35:47.689Z,15.00
2018-04-16T06:36:51.017Z,15.00
2018-04-16T06:37:54.362Z,15.20
2018-04-16T06:38:57.677Z,15.20
2018-04-16T06:40:00.988Z,15.20
2018-04-16T06:41:04.322Z,15.20
2018-04-16T06:42:08.442Z,15.30
2018-04-16T06:43:11.801Z,15.30
2018-04-16T06:44:15.100Z,15.30
2018-04-16T06:45:19.167Z,15.40
2018-04-16T06:46:22.517Z,15.40
2018-04-16T06:47:25.894Z,15.50
2018-04-16T06:48:29.226Z,15.50
2018-04-16T06:49:32.535Z,15.40
2018-04-16T06:50:36.616Z,15.30
2018-04-16T06:51:39.926Z,15.30
2018-04-16T06:52:44.022Z,15.20
2018-04-16T06:53:48.182Z,15.10
2018-04-16T06:54:52.571Z,15.10
2018-04-16T06:55:55.907Z,15.00
2018-04-16T06:56:59.218Z,15.00
2018-04-16T06:58:03.348Z,15.20
2018-04-16T06:59:06.759Z,15.20
2018-04-16T07:00:10.110Z,15.40
2018-04-16T07:01:13.500Z,15.50
2018-04-16T07:02:16.820Z,15.50
2018-04-16T07:03:20.173Z,15.50
2018-04-16T07:04:23.549Z,15.40
2018-04-16T07:05:26.906Z,15.40
2018-04-16T07:06:31.029Z,15.30
2018-04-16T07:07:34.383Z,15.30
2018-04-16T07:08:39.635Z,15.20
2018-04-16T07:09:43.713Z,15.40
2018-04-16T07:10:47.089Z,15.30
2018-04-16T07:11:50.442Z,15.50
2018-04-16T07:12:53.737Z,15.60
2018-04-16T07:13:57.137Z,15.70
2018-04-16T07:15:00.465Z,15.90
2018-04-16T07:16:03.836Z,15.80
2018-04-16T07:17:07.228Z,15.80
2018-04-16T07:18:10.640Z,15.70
2018-04-16T07:19:13.956Z,15.80
2018-04-16T07:20:17.352Z,15.80
2018-04-16T07:21:20.677Z,15.70
2018-04-16T07:22:23.994Z,15.80
2018-04-16T07:23:27.324Z,15.80
2018-04-16T07:24:31.423Z,15.80
2018-04-16T07:25:34.781Z,15.80
2018-04-16T07:26:38.102Z,15.90
2018-04-16T07:27:41.445Z,15.90
2018-04-16T07:28:44.795Z,15.80
2018-04-16T07:29:48.076Z,15.90
2018-04-16T07:30:51.381Z,15.90
2018-04-16T07:31:54.677Z,15.90
2018-04-16T07:32:57.995Z,15.90
2018-04-16T07:34:01.318Z,16.10
2018-04-16T07:35:04.657Z,16.10
2018-04-16T07:36:08.009Z,16.00
2018-04-16T07:37:11.344Z,16.10
2018-04-16T07:38:15.427Z,16.10
2018-04-16T07:39:18.716Z,16.00
2018-04-16T07:40:22.031Z,16.00
2018-04-16T07:41:26.130Z,16.10
2018-04-16T07:42:30.200Z,16.10
2018-04-16T07:43:33.496Z,16.00
2018-04-16T07:44:36.849Z,16.10
2018-04-16T07:45:40.164Z,16.00
2018-04-16T07:46:43.487Z,16.00
2018-04-16T07:47:46.796Z,15.90
2018-04-16T07:48:50.133Z,15.80
2018-04-16T07:49:53.430Z,15.80
2018-04-16T07:50:57.614Z,15.60
2018-04-16T07:52:00.984Z,15.60
2018-04-16T07:53:04.314Z,15.60
2018-04-16T07:54:07.626Z,15.70
2018-04-16T07:55:10.925Z,15.80
2018-04-16T07:56:14.243Z,15.90
2018-04-16T07:57:18.344Z,16.10
2018-04-16T07:58:22.486Z,16.20
2018-04-16T07:59:25.821Z,16.20
2018-04-16T08:00:29.924Z,16.10
2018-04-16T08:01:33.274Z,16.10
2018-04-16T08:02:36.610Z,16.10
2018-04-16T08:03:39.940Z,16.10
2018-04-16T08:04:43.254Z,16.00
2018-04-16T08:05:46.623Z,15.90
2018-04-16T08:06:50.013Z,15.80
2018-04-16T08:07:53.441Z,15.90
2018-04-16T08:08:56.760Z,15.80
2018-04-16T08:10:00.082Z,15.80
2018-04-16T08:11:03.440Z,15.70
2018-04-16T08:12:06.765Z,15.70
2018-04-16T08:13:10.232Z,15.80
2018-04-16T08:14:13.541Z,15.90
2018-04-16T08:15:17.234Z,15.90
2018-04-16T08:16:21.310Z,16.00
2018-04-16T08:17:24.622Z,16.00
2018-04-16T08:18:27.986Z,16.00
2018-04-16T08:19:31.297Z,16.10
2018-04-16T08:20:34.610Z,16.30
2018-04-16T08:21:37.963Z,16.30
2018-04-16T08:22:41.290Z,16.40
2018-04-16T08:23:44.646Z,16.30
2018-04-16T08:24:48.718Z,16.30
2018-04-16T08:25:52.028Z,16.30
2018-04-16T08:26:56.094Z,16.60
2018-04-16T08:27:59.411Z,16.50
2018-04-16T08:29:03.521Z,16.70
2018-04-16T08:30:07.594Z,16.60
2018-04-16T08:31:10.897Z,16.60
2018-04-16T08:32:14.235Z,16.70
2018-04-16T08:33:17.571Z,16.80
2018-04-16T08:34:20.941Z,16.90
2018-04-16T08:35:24.358Z,17.00
2018-04-16T08:36:27.685Z,17.10
2018-04-16T08:37:30.991Z,17.10
2018-04-16T08:38:34.294Z,17.10
2018-04-16T08:39:38.411Z,16.90
2018-04-16T08:40:41.747Z,16.80
2018-04-16T08:41:45.049Z,16.90
2018-04-16T08:42:48.363Z,16.90
2018-04-16T08:43:51.691Z,16.90
2018-04-16T08:44:55.012Z,17.00
2018-04-16T08:45:58.309Z,16.90
2018-04-16T08:47:02.419Z,17.00
2018-04-16T08:48:05.723Z,17.00
2018-04-16T08:49:09.036Z,17.00
2018-04-16T08:50:12.352Z,16.90
2018-04-16T08:51:15.671Z,16.90
2018-04-16T08:52:18.972Z,16.90
2018-04-16T08:53:22.333Z,17.00
2018-04-16T08:54:26.579Z,17.10
2018-04-16T08:55:29.902Z,17.10
2018-04-16T08:56:33.270Z,17.20
2018-04-16T08:57:37.389Z,17.30
2018-04-16T08:58:40.705Z,17.40
2018-04-16T08:59:44.033Z,17.50
2018-04-16T09:00:47.369Z,17.50
2018-04-16T09:01:50.719Z,17.50
2018-04-16T09:02:54.071Z,17.60
2018-04-16T09:03:57.402Z,17.60
2018-04-16T09:05:01.614Z,17.70
2018-04-16T09:06:04.971Z,17.70
2018-04-16T09:07:08.293Z,17.70
2018-04-16T09:08:11.625Z,17.80
2018-04-16T09:09:14.980Z,17.80
2018-04-16T09:10:18.297Z,17.80
2018-04-16T09:11:21.652Z,17.80
2018-04-16T09:12:24.952Z,17.80
2018-04-16T09:13:28.259Z,17.80
2018-04-16T09:14:31.593Z,17.80
2018-04-16T09:15:34.914Z,17.70
2018-04-16T09:16:38.298Z,17.70
2018-04-16T09:17:41.616Z,17.80
2018-04-16T09:18:44.947Z,17.60
2018-04-16T09:19:48.252Z,17.60
2018-04-16T09:20:52.350Z,17.50
2018-04-16T09:21:55.688Z,17.50
2018-04-16T09:22:59.792Z,17.40
2018-04-16T09:24:03.872Z,17.50
2018-04-16T09:25:08.028Z,17.50
2018-04-16T09:26:11.364Z,17.50
2018-04-16T09:27:15.465Z,17.40
2018-04-16T09:28:18.806Z,17.40
2018-04-16T09:29:22.512Z,17.30
2018-04-16T09:30:25.964Z,17.30
2018-04-16T09:31:29.475Z,17.30
2018-04-16T09:32:33.121Z,17.20
2018-04-16T09:33:37.414Z,16.90
2018-04-16T09:34:40.728Z,16.90
2018-04-16T09:35:44.816Z,16.90
2018-04-16T09:36:48.192Z,16.90
2018-04-16T09:37:51.567Z,16.80
2018-04-16T09:38:54.866Z,16.90
2018-04-16T09:39:58.202Z,17.00
2018-04-16T09:41:01.553Z,17.00
2018-04-16T09:42:04.878Z,16.90
2018-04-16T09:43:08.216Z,16.70
2018-04-16T09:44:11.532Z,16.80
2018-04-16T09:45:14.846Z,16.70
2018-04-16T09:46:18.137Z,16.80
2018-04-16T09:47:21.420Z,16.90
2018-04-16T09:48:24.739Z,17.00
2018-04-16T09:49:28.063Z,17.10
2018-04-16T09:50:31.377Z,17.20
2018-04-16T09:51:34.703Z,17.30
2018-04-16T09:52:38.021Z,17.30
2018-04-16T09:54:58.430Z,17.20
2018-04-16T09:56:01.752Z,17.10
2018-04-16T09:57:05.081Z,17.00
2018-04-16T09:58:08.392Z,17.10
2018-04-16T09:59:11.701Z,16.90
2018-04-16T10:00:15.818Z,17.20
2018-04-16T10:01:21.945Z,17.10
2018-04-16T10:02:25.288Z,17.30
2018-04-16T10:03:28.603Z,17.30
2018-04-16T10:04:31.922Z,17.40
2018-04-16T10:05:36.041Z,17.40
2018-04-16T10:06:39.358Z,17.40
2018-04-16T10:07:42.697Z,17.50
2018-04-16T10:08:46.075Z,17.50
2018-04-16T10:09:50.159Z,17.40
2018-04-16T10:10:53.517Z,17.30
2018-04-16T10:11:56.827Z,17.30
2018-04-16T10:13:00.153Z,17.30
2018-04-16T10:14:03.444Z,17.40
2018-04-16T10:15:06.771Z,17.50
2018-04-16T10:16:10.145Z,17.50
2018-04-16T10:17:13.479Z,17.50
2018-04-16T10:18:16.809Z,17.60
2018-04-16T10:19:20.120Z,17.70
2018-04-16T10:20:23.443Z,17.80
2018-04-16T10:21:27.816Z,17.90
2018-04-16T10:22:31.129Z,17.90
2018-04-16T10:23:34.439Z,17.90
2018-04-16T10:24:37.788Z,17.90
2018-04-16T10:25:41.866Z,17.80
2018-04-16T10:26:45.236Z,17.80
2018-04-16T10:27:48.545Z,17.90
2018-04-16T10:28:51.844Z,17.90
2018-04-16T10:29:55.171Z,17.80
2018-04-16T10:30:58.474Z,17.90
2018-04-16T10:32:01.809Z,17.90
2018-04-16T10:33:05.885Z,17.90
2018-04-16T10:34:09.304Z,17.90
2018-04-16T10:35:12.576Z,18.00
2018-04-16T10:36:15.882Z,17.90
2018-04-16T10:37:19.203Z,17.90
2018-04-16T10:38:22.534Z,17.80
2018-04-16T10:39:26.639Z,17.80
2018-04-16T10:40:30.747Z,17.90
2018-04-16T10:41:34.050Z,17.90
2018-04-16T10:42:37.383Z,17.90
2018-04-16T10:43:40.693Z,17.80
2018-04-16T10:44:44.013Z,17.80
2018-04-16T10:45:47.326Z,17.80
2018-04-16T10:46:50.631Z,17.80
2018-04-16T10:47:54.008Z,17.80
2018-04-16T10:48:57.324Z,17.70
2018-04-16T10:50:01.608Z,17.80
2018-04-16T10:51:04.952Z,17.80
2018-04-16T10:52:08.305Z,17.80
2018-04-16T10:53:11.635Z,17.50
2018-04-16T10:54:14.943Z,17.30
2018-04-16T10:55:18.248Z,17.30
2018-04-16T10:56:21.558Z,17.40
2018-04-16T10:57:24.874Z,17.50
2018-04-16T10:58:28.213Z,17.50
2018-04-16T10:59:31.589Z,17.60
2018-04-16T11:00:34.906Z,17.60
2018-04-16T11:01:38.312Z,17.80
2018-04-16T11:04:26.415Z,17.90
2018-04-16T11:05:29.713Z,18.00
2018-04-16T11:06:33.036Z,17.90
2018-04-16T11:07:36.354Z,18.00
2018-04-16T11:08:40.456Z,18.20
2018-04-16T11:09:43.940Z,18.20
2018-04-16T11:10:48.077Z,18.00
2018-04-16T11:11:51.424Z,18.00
2018-04-16T11:12:54.766Z,18.00
2018-04-16T11:13:58.107Z,18.00
2018-04-16T11:15:01.446Z,18.10
2018-04-16T11:16:04.739Z,18.00
2018-04-16T11:17:08.061Z,18.00
2018-04-16T11:18:11.378Z,18.00
2018-04-16T11:19:14.752Z,18.00
2018-04-16T11:20:18.061Z,18.00
2018-04-16T11:21:21.358Z,18.00
2018-04-16T11:22:24.674Z,18.20
2018-04-16T11:23:28.028Z,18.30
2018-04-16T11:24:31.395Z,18.50
2018-04-16T11:25:34.734Z,18.50
2018-04-16T11:26:38.822Z,18.50
2018-04-16T11:27:42.125Z,18.50
2018-04-16T11:28:46.201Z,18.30
2018-04-16T11:29:49.518Z,18.30
2018-04-16T11:30:53.664Z,18.20
2018-04-16T11:31:56.971Z,18.20
2018-04-16T11:33:00.267Z,18.20
2018-04-16T11:34:03.619Z,18.20
2018-04-16T11:35:06.948Z,18.10
2018-04-16T11:36:11.055Z,18.00
2018-04-16T11:37:15.143Z,18.00
2018-04-16T11:38:19.263Z,18.00
2018-04-16T11:39:23.404Z,18.00
2018-04-16T11:40:26.710Z,18.00
2018-04-16T11:41:30.076Z,17.70
2018-04-16T11:42:33.491Z,17.60
2018-04-16T11:43:36.815Z,17.70
2018-04-16T11:44:40.984Z,17.40
2018-04-16T11:45:44.292Z,17.40
2018-04-16T11:46:48.402Z,17.30
2018-04-16T11:47:51.765Z,17.30
2018-04-16T11:48:55.084Z,17.30
2018-04-16T11:49:58.452Z,17.40
2018-04-16T11:51:02.580Z,17.60
2018-04-16T11:52:05.927Z,17.60
2018-04-16T11:53:10.016Z,17.90
2018-04-16T11:54:13.313Z,17.90
2018-04-16T11:55:16.630Z,17.90
2018-04-16T11:56:19.934Z,17.90
2018-04-16T11:57:23.325Z,17.90
2018-04-16T11:58:26.658Z,17.90
2018-04-16T11:59:29.985Z,18.00
2018-04-16T12:00:33.308Z,18.10
2018-04-16T12:01:36.656Z,18.30
2018-04-16T12:02:39.997Z,18.20
2018-04-16T12:03:43.333Z,18.30
2018-04-16T12:04:46.660Z,18.50
2018-04-16T12:05:50.047Z,18.60
2018-04-16T12:06:53.957Z,18.80
2018-04-16T12:07:57.316Z,18.70
2018-04-16T12:09:00.652Z,18.60
2018-04-16T12:10:03.980Z,18.60
2018-04-16T12:11:07.267Z,18.60
2018-04-16T12:12:10.591Z,18.50
2018-04-16T12:13:14.699Z,18.30
2018-04-16T12:14:18.027Z,18.30
2018-04-16T12:15:21.443Z,18.30
2018-04-16T12:16:24.745Z,18.30
2018-04-16T12:17:28.143Z,18.40
2018-04-16T12:18:31.507Z,18.50
2018-04-16T12:19:35.595Z,18.50
2018-04-16T12:20:38.956Z,18.50
2018-04-16T12:21:42.283Z,18.60
2018-04-16T12:22:45.680Z,18.70
2018-04-16T12:23:49.807Z,18.60
2018-04-16T12:24:53.171Z,18.60
2018-04-16T12:25:56.887Z,18.70
2018-04-16T12:27:00.192Z,18.70
2018-04-16T12:28:03.589Z,18.70
2018-04-16T12:29:07.047Z,18.90
2018-04-16T12:30:10.401Z,18.60
2018-04-16T12:31:13.675Z,18.70
2018-04-16T12:32:17.012Z,18.70
2018-04-16T12:33:20.966Z,18.70
2018-04-16T12:34:24.318Z,18.70
2018-04-16T12:35:27.627Z,18.70
2018-04-16T12:36:30.957Z,18.60
2018-04-16T12:37:34.255Z,18.60
2018-04-16T12:38:37.579Z,18.60
2018-04-16T12:39:41.593Z,18.70
2018-04-16T12:40:44.951Z,18.60
2018-04-16T12:41:48.240Z,18.50
2018-04-16T12:42:51.559Z,18.60
2018-04-16T12:43:55.648Z,18.60
2018-04-16T12:44:59.741Z,18.60
2018-04-16T12:46:03.038Z,18.60
2018-04-16T12:47:07.117Z,18.60
2018-04-16T12:48:10.432Z,18.60
2018-04-16T12:49:15.233Z,18.70
2018-04-16T12:50:18.596Z,18.70
2018-04-16T12:51:21.904Z,18.70
2018-04-16T12:52:25.225Z,18.60
2018-04-16T12:53:28.611Z,18.50
2018-04-16T12:54:31.935Z,18.70
2018-04-16T12:55:35.291Z,18.70
2018-04-16T12:56:38.607Z,18.70
2018-04-16T12:57:41.917Z,18.70
2018-04-16T12:58:45.248Z,18.80
2018-04-16T12:59:48.538Z,18.90
2018-04-16T13:00:51.854Z,18.80
2018-04-16T13:01:55.168Z,18.80
2018-04-16T13:02:58.533Z,18.80
2018-04-16T13:04:01.864Z,18.90
2018-04-16T13:05:05.189Z,19.00
2018-04-16T13:06:08.532Z,19.20
2018-04-16T13:07:11.841Z,19.20
2018-04-16T13:08:15.135Z,19.00
2018-04-16T13:09:18.428Z,18.70
2018-04-16T13:10:21.731Z,18.70
2018-04-16T13:11:25.093Z,18.80
2018-04-16T13:12:28.404Z,18.80
2018-04-16T13:13:31.708Z,18.80
2018-04-16T13:14:35.084Z,18.60
2018-04-16T13:15:38.391Z,18.60
2018-04-16T13:16:41.741Z,18.40
2018-04-16T13:17:45.084Z,18.40
2018-04-16T13:18:48.420Z,18.30
2018-04-16T13:19:51.726Z,18.50
2018-04-16T13:20:55.088Z,18.60
2018-04-16T13:21:59.225Z,18.50
2018-04-16T13:23:02.562Z,18.50
2018-04-16T13:24:05.868Z,18.50
2018-04-16T13:25:09.936Z,18.50
2018-04-16T13:26:14.007Z,18.60
2018-04-16T13:27:17.373Z,18.60
2018-04-16T13:28:20.735Z,18.70
2018-04-16T13:29:24.106Z,18.80
2018-04-16T13:30:27.449Z,18.90
2018-04-16T13:31:30.769Z,19.00
2018-04-16T13:32:34.104Z,19.00
2018-04-16T13:33:37.430Z,18.90
2018-04-16T13:34:40.736Z,18.90
2018-04-16T13:35:44.049Z,18.80
2018-04-16T13:36:48.144Z,18.80
2018-04-16T13:37:52.223Z,18.80
2018-04-16T13:38:55.528Z,18.80
2018-04-16T13:39:59.587Z,18.80
2018-04-16T13:41:03.015Z,18.80
2018-04-16T13:42:07.074Z,18.80
2018-04-16T13:43:10.400Z,18.80
2018-04-16T13:44:14.466Z,18.90
2018-04-16T13:45:17.859Z,18.90
2018-04-16T13:46:21.153Z,19.00
2018-04-16T13:47:24.474Z,19.10
2018-04-16T13:48:28.553Z,19.20
2018-04-16T13:49:31.922Z,19.20
2018-04-16T13:50:35.274Z,19.10
2018-04-16T13:51:38.702Z,19.00
2018-04-16T13:52:42.056Z,19.10
2018-04-16T13:53:45.371Z,19.00
2018-04-16T13:54:48.701Z,19.20
2018-04-16T13:55:52.038Z,19.30
2018-04-16T13:56:55.366Z,19.40
2018-04-16T13:57:58.750Z,19.50
2018-04-16T13:59:02.127Z,19.30
2018-04-16T14:00:05.447Z,19.30
2018-04-16T14:01:08.772Z,19.30
2018-04-16T14:02:12.095Z,19.20
2018-04-16T14:03:15.421Z,19.10
2018-04-16T14:04:18.803Z,19.20
2018-04-16T14:05:22.133Z,19.20
2018-04-16T14:06:26.213Z,18.70
2018-04-16T14:07:29.530Z,18.70
2018-04-16T14:08:32.825Z,18.70
2018-04-16T14:09:36.124Z,18.60
2018-04-16T14:10:39.425Z,18.80
2018-04-16T14:11:42.727Z,19.00
2018-04-16T14:12:46.116Z,19.10
2018-04-16T14:13:49.413Z,19.20
2018-04-16T14:14:52.757Z,19.20
2018-04-16T14:15:56.056Z,19.40
2018-04-16T14:16:59.414Z,19.40
2018-04-16T14:18:02.760Z,19.50